Archival Weather

Chicago O'Hare International

Chicago, Illinois (KORD)

Report from: Saturday, May 20, 2023 10:51 PM CDT
Current time: Friday, February 23, 2024 2:38 PM CST

Current weather – Weather history – Daily summaries
Weather forecast

Temperature16.1°C (61.0°F)
Dew point3.9°C (39.0°F)
Winds 5 kts (2.6 m/s, 5.8 mph) South-Southwest (200°)
Visibility10 mi. (16.1 km)
Clouds Sky clear
Altimeter30.14 in.Hg (1021 mB)
Relative humidity44 %
Density altitude-1 ft. (-0 m)
Sea-level pressure102.1 kPa (1021 mB, 30.14 in.Hg)
Remarks Automated weather observing station with precipitation discriminator
Flight conditions Visual Meteorological Conditions
Raw dataKORD 210351Z 20005KT 10SM CLR 16/04 A3014 RMK AO2 SLP207 T01610039
An error has occurred. This application may no longer respond until reloaded. Reload 🗙